Time;durP1;ratioP1;P1;durP2;ratioP2;P2;SDS_P1;SDS_P2;PMS_P1;PMS_P2;Temp;Humidity;BMP_temperature;BMP_pressure;BME280_temperature;BME280_humidity;BME280_pressure;Samples;Min_cycle;Max_cycle;Signal;HPM_P1;HPM_P2
2023/12/17 00:02:00;;;;;;;22.20;18.53;;;;;;;3.11;100.00;98909.72;5074119;28;20202;-59
2023/12/17 00:04:27;;;;;;;22.37;18.03;;;;;;;3.06;100.00;98898.50;5074307;28;20312;-59
2023/12/17 00:06:54;;;;;;;19.63;16.90;;;;;;;3.16;100.00;98897.34;5070833;28;20202;-59
2023/12/17 00:09:22;;;;;;;21.00;17.67;;;;;;;3.12;100.00;98890.50;5074924;28;20293;-57
2023/12/17 00:11:49;;;;;;;19.67;16.70;;;;;;;3.18;100.00;98888.59;5072457;28;20221;-60
2023/12/17 00:14:16;;;;;;;20.63;16.77;;;;;;;3.13;100.00;98889.59;5030782;28;1115023;-62
2023/12/17 00:16:43;;;;;;;20.33;17.20;;;;;;;3.20;100.00;98881.53;5071408;28;20354;-58
2023/12/17 00:19:11;;;;;;;20.93;17.20;;;;;;;3.16;100.00;98879.03;5069837;28;20314;-60
2023/12/17 00:21:38;;;;;;;21.60;17.80;;;;;;;3.18;100.00;98874.66;5069987;28;20611;-58
2023/12/17 00:24:05;;;;;;;20.60;17.67;;;;;;;3.17;100.00;98867.69;5070281;28;20293;-59
2023/12/17 00:26:31;;;;;;;21.27;18.53;;;;;;;3.07;100.00;98868.84;5068664;28;20260;-59
2023/12/17 00:28:58;;;;;;;19.47;16.80;;;;;;;3.16;100.00;98864.22;5068431;28;20214;-59
2023/12/17 00:31:25;;;;;;;19.97;17.03;;;;;;;2.96;100.00;98851.72;5070746;28;20293;-60
2023/12/17 00:33:51;;;;;;;19.23;15.90;;;;;;;2.94;100.00;98871.78;5073908;28;20201;-60
2023/12/17 00:36:19;;;;;;;20.70;17.07;;;;;;;2.96;100.00;98877.84;5073963;28;20206;-60
2023/12/17 00:38:46;;;;;;;20.23;16.97;;;;;;;2.93;100.00;98867.50;5073659;28;20218;-58
2023/12/17 00:41:14;;;;;;;19.37;16.57;;;;;;;2.76;100.00;98874.94;5073272;28;20263;-59
2023/12/17 00:43:40;;;;;;;20.70;17.33;;;;;;;2.84;100.00;98872.09;5073206;28;20550;-59
2023/12/17 00:46:07;;;;;;;22.47;17.77;;;;;;;2.84;100.00;98866.88;5073447;28;20647;-60
2023/12/17 00:48:35;;;;;;;19.27;17.20;;;;;;;2.87;100.00;98867.63;5073964;28;20203;-60
2023/12/17 00:51:02;;;;;;;21.33;16.77;;;;;;;2.89;100.00;98863.25;5074074;28;20217;-60
2023/12/17 00:53:31;;;;;;;22.83;18.00;;;;;;;2.78;100.00;98870.50;5073692;28;20199;-60
2023/12/17 00:55:58;;;;;;;21.63;17.77;;;;;;;2.84;100.00;98875.56;5074069;28;20203;-60
2023/12/17 00:58:24;;;;;;;21.20;17.23;;;;;;;2.74;100.00;98861.03;5073161;28;20222;-59
2023/12/17 01:00:51;;;;;;;20.87;17.03;;;;;;;2.88;100.00;98848.47;5073579;28;20206;-58
2023/12/17 01:03:18;;;;;;;21.47;18.10;;;;;;;2.93;100.00;98853.56;5073747;28;20207;-60
2023/12/17 01:05:44;;;;;;;21.57;17.47;;;;;;;2.95;100.00;98859.59;5073624;28;20285;-58
2023/12/17 01:08:11;;;;;;;22.07;17.73;;;;;;;2.88;100.00;98858.03;5073486;28;20264;-60
2023/12/17 01:10:40;;;;;;;23.03;17.50;;;;;;;2.84;100.00;98866.88;5073732;28;20294;-60
2023/12/17 01:13:07;;;;;;;20.93;17.00;;;;;;;2.77;100.00;98860.09;5072092;28;20238;-58
2023/12/17 01:15:33;;;;;;;20.80;17.83;;;;;;;2.81;100.00;98862.59;5073610;28;20329;-60
2023/12/17 01:18:00;;;;;;;19.77;16.67;;;;;;;2.88;100.00;98855.44;5074883;28;20201;-59
2023/12/17 01:20:27;;;;;;;20.07;17.07;;;;;;;2.89;100.00;98855.41;5083711;28;20199;-59
2023/12/17 01:22:53;;;;;;;20.27;17.07;;;;;;;2.86;100.00;98850.25;5083881;28;20209;-59
2023/12/17 01:25:20;;;;;;;20.53;17.47;;;;;;;2.92;100.00;98851.84;5079511;28;20213;-60
2023/12/17 01:27:48;;;;;;;20.57;16.53;;;;;;;2.92;100.00;98852.69;5077513;28;20282;-59
2023/12/17 01:30:15;;;;;;;18.37;15.37;;;;;;;2.79;100.00;98851.34;5077554;28;20230;-59
2023/12/17 01:32:41;;;;;;;17.73;15.10;;;;;;;2.80;100.00;98845.19;5074452;28;20223;-60
2023/12/17 01:35:08;;;;;;;17.67;14.97;;;;;;;2.78;100.00;98852.22;5073961;28;20207;-60
2023/12/17 01:37:35;;;;;;;17.93;14.80;;;;;;;2.85;100.00;98853.78;5073007;28;20551;-60
2023/12/17 01:40:02;;;;;;;16.73;14.87;;;;;;;2.87;100.00;98848.50;5073039;28;20234;-59
2023/12/17 01:42:29;;;;;;;17.90;15.10;;;;;;;2.82;100.00;98853.84;5072653;28;20210;-59
2023/12/17 01:44:56;;;;;;;17.43;15.27;;;;;;;2.89;100.00;98849.31;5073080;28;20302;-58
2023/12/17 01:47:23;;;;;;;18.43;15.30;;;;;;;2.88;100.00;98856.28;5072564;28;20202;-59
2023/12/17 01:49:50;;;;;;;19.73;15.33;;;;;;;2.91;100.00;98850.97;5072736;28;20199;-59
2023/12/17 01:52:17;;;;;;;18.77;15.10;;;;;;;2.84;100.00;98854.66;5073297;28;20631;-58
2023/12/17 01:54:43;;;;;;;17.10;14.37;;;;;;;2.83;100.00;98855.59;5071934;28;20651;-59
2023/12/17 01:57:10;;;;;;;16.73;14.23;;;;;;;2.77;100.00;98854.88;5072803;28;20202;-60
2023/12/17 01:59:38;;;;;;;16.30;14.07;;;;;;;2.76;100.00;98854.03;5072427;28;20252;-58
2023/12/17 02:02:06;;;;;;;15.77;13.30;;;;;;;2.82;100.00;98853.84;5072728;28;20199;-60
2023/12/17 02:04:33;;;;;;;16.60;14.40;;;;;;;2.80;100.00;98850.41;5072508;28;20199;-60
2023/12/17 02:07:00;;;;;;;16.97;14.67;;;;;;;2.79;100.00;98864.41;5072336;28;20213;-58
2023/12/17 02:09:26;;;;;;;19.20;16.00;;;;;;;2.75;100.00;98865.38;5072417;28;20527;-60
2023/12/17 02:11:53;;;;;;;21.60;16.33;;;;;;;2.78;100.00;98865.28;5072231;28;20194;-60
2023/12/17 02:14:19;;;;;;;20.53;16.70;;;;;;;2.73;100.00;98864.53;5071445;28;20234;-59
2023/12/17 02:16:46;;;;;;;20.33;16.23;;;;;;;2.73;100.00;98874.16;5072430;28;20238;-59
2023/12/17 02:19:14;;;;;;;19.50;15.83;;;;;;;2.80;100.00;98873.94;5073421;28;20230;-59
2023/12/17 02:21:41;;;;;;;20.00;16.57;;;;;;;2.81;100.00;98872.19;5077200;28;20195;-60
2023/12/17 02:24:09;;;;;;;22.00;17.70;;;;;;;2.80;100.00;98855.63;5077882;28;20203;-59
2023/12/17 02:26:35;;;;;;;23.93;18.23;;;;;;;2.83;100.00;98852.09;5075280;28;20213;-60
2023/12/17 02:29:02;;;;;;;23.03;19.23;;;;;;;2.88;100.00;98858.03;5072321;28;20203;-59
2023/12/17 02:31:29;;;;;;;22.07;18.17;;;;;;;2.88;100.00;98860.66;5072240;28;20216;-60
2023/12/17 02:33:55;;;;;;;22.50;17.73;;;;;;;2.89;100.00;98868.47;5071445;28;20285;-60
2023/12/17 02:36:22;;;;;;;22.13;18.23;;;;;;;2.94;100.00;98863.13;5071911;28;20202;-60
2023/12/17 02:38:48;;;;;;;24.67;17.97;;;;;;;2.89;100.00;98873.69;5071499;28;20230;-59
2023/12/17 02:41:16;;;;;;;21.77;17.83;;;;;;;2.90;100.00;98888.50;5071024;28;20213;-59
2023/12/17 02:43:43;;;;;;;24.80;19.17;;;;;;;2.84;100.00;98893.84;5071070;28;20712;-59
2023/12/17 02:46:09;;;;;;;23.33;17.50;;;;;;;2.75;100.00;98888.03;5071990;28;20207;-63
2023/12/17 02:48:36;;;;;;;24.90;20.07;;;;;;;2.73;100.00;98882.00;5071572;28;20705;-58
2023/12/17 02:51:02;;;;;;;25.40;19.93;;;;;;;2.70;100.00;98884.66;5071082;28;20694;-59
2023/12/17 02:53:29;;;;;;;26.80;20.63;;;;;;;2.64;100.00;98887.44;5071703;28;20220;-59
2023/12/17 02:55:56;;;;;;;26.57;21.23;;;;;;;2.60;100.00;98875.34;5071174;28;20224;-59
2023/12/17 02:58:23;;;;;;;28.03;22.10;;;;;;;2.65;100.00;98876.09;5070999;28;20293;-60
2023/12/17 03:00:50;;;;;;;27.23;21.23;;;;;;;2.62;100.00;98877.06;5071715;28;20207;-60
2023/12/17 03:03:16;;;;;;;28.40;22.10;;;;;;;2.52;100.00;98880.78;5071235;28;20237;-60
2023/12/17 03:05:43;;;;;;;28.80;21.47;;;;;;;2.51;100.00;98873.84;5071408;28;20546;-60
2023/12/17 03:08:10;;;;;;;27.47;20.13;;;;;;;2.54;100.00;98872.91;5071673;28;20209;-59
2023/12/17 03:10:42;;;;;;;26.70;19.90;;;;;;;2.49;100.00;98875.63;5071971;28;20209;-59
2023/12/17 03:13:09;;;;;;;30.87;22.90;;;;;;;2.49;100.00;98873.03;5071041;28;20207;-59
2023/12/17 03:15:37;;;;;;;32.00;24.00;;;;;;;2.50;100.00;98874.75;5070905;28;20329;-60
2023/12/17 03:18:04;;;;;;;34.80;23.90;;;;;;;2.55;100.00;98874.63;5070664;28;20693;-59
2023/12/17 03:20:31;;;;;;;33.07;23.93;;;;;;;2.49;100.00;98873.03;5070503;28;20639;-60
2023/12/17 03:22:57;;;;;;;33.03;23.83;;;;;;;2.52;100.00;98875.53;5070930;28;20206;-58
2023/12/17 03:25:26;;;;;;;30.53;22.43;;;;;;;2.51;100.00;98873.84;5071005;28;20198;-59
2023/12/17 03:27:53;;;;;;;30.00;23.03;;;;;;;2.52;100.00;98870.31;5072955;28;20204;-59
2023/12/17 03:30:19;;;;;;;31.80;23.93;;;;;;;2.47;100.00;98872.22;5073141;28;20328;-59
2023/12/17 03:32:47;;;;;;;29.90;21.13;;;;;;;2.50;100.00;98872.13;5071540;28;20198;-59
2023/12/17 03:35:14;;;;;;;25.33;19.30;;;;;;;2.50;100.00;98872.13;5071202;28;20654;-59
2023/12/17 03:37:40;;;;;;;20.43;16.00;;;;;;;2.55;100.00;98879.84;5070849;28;20297;-60
2023/12/17 03:40:08;;;;;;;19.60;15.20;;;;;;;2.51;100.00;98876.47;5070838;28;20236;-58
2023/12/17 03:42:35;;;;;;;18.53;14.83;;;;;;;2.54;100.00;98878.13;5070427;28;20221;-59
2023/12/17 03:45:02;;;;;;;18.37;14.73;;;;;;;2.64;100.00;98883.09;5070954;28;20219;-60
2023/12/17 03:47:28;;;;;;;20.30;15.70;;;;;;;2.69;100.00;98886.44;5070871;28;20508;-59
2023/12/17 03:49:56;;;;;;;20.37;16.07;;;;;;;2.62;100.00;98890.13;5070339;28;20531;-58
2023/12/17 03:52:23;;;;;;;20.07;15.90;;;;;;;2.49;100.00;98891.31;5070524;28;20517;-61
2023/12/17 03:54:49;;;;;;;20.63;16.13;;;;;;;2.49;100.00;98883.47;5071010;28;20211;-59
2023/12/17 03:57:16;;;;;;;18.90;15.37;;;;;;;2.57;100.00;98880.66;5070666;28;20198;-60
2023/12/17 03:59:42;;;;;;;19.93;15.63;;;;;;;2.61;100.00;98875.31;5070789;28;20236;-59
2023/12/17 04:02:09;;;;;;;19.83;16.00;;;;;;;2.57;100.00;98870.22;5072058;28;20202;-59
2023/12/17 04:04:35;;;;;;;20.00;15.70;;;;;;;2.62;100.00;98864.00;5072260;28;20285;-60
2023/12/17 04:07:04;;;;;;;21.63;16.27;;;;;;;2.66;100.00;98857.75;5074133;28;20198;-60
2023/12/17 04:09:30;;;;;;;21.33;16.27;;;;;;;2.71;100.00;98853.28;5075422;28;20209;-60
2023/12/17 04:11:57;;;;;;;18.80;15.63;;;;;;;2.73;100.00;98861.94;5075245;28;20198;-60
2023/12/17 04:14:23;;;;;;;19.80;15.57;;;;;;;2.73;100.00;98864.53;5074540;28;20755;-59
2023/12/17 04:16:50;;;;;;;20.47;16.53;;;;;;;2.83;100.00;98871.25;5074631;28;20206;-59
2023/12/17 04:19:17;;;;;;;21.00;16.67;;;;;;;2.84;100.00;98865.09;5073951;28;20520;-59
2023/12/17 04:21:43;;;;;;;20.03;15.87;;;;;;;2.84;100.00;98870.34;5074294;28;20205;-60
2023/12/17 04:24:11;;;;;;;19.97;15.20;;;;;;;2.83;100.00;98858.19;5074451;28;20264;-59
2023/12/17 04:26:38;;;;;;;20.27;15.93;;;;;;;2.74;100.00;98860.19;5074490;28;20217;-59
2023/12/17 04:29:04;;;;;;;21.33;16.50;;;;;;;2.69;100.00;98862.06;5073963;28;20300;-60
2023/12/17 04:31:31;;;;;;;22.27;15.77;;;;;;;2.77;100.00;98871.41;5074058;28;20264;-60
2023/12/17 04:33:58;;;;;;;19.67;16.03;;;;;;;2.82;100.00;98885.22;5075117;28;20202;-60
2023/12/17 04:36:25;;;;;;;22.33;16.70;;;;;;;2.86;100.00;98880.75;5076945;28;20536;-60
2023/12/17 04:38:52;;;;;;;23.50;18.20;;;;;;;2.75;100.00;98886.28;5078323;28;20204;-62
2023/12/17 04:41:20;;;;;;;21.73;16.57;;;;;;;2.68;100.00;98874.28;5090812;28;20230;-61
2023/12/17 04:43:46;;;;;;;21.33;16.33;;;;;;;2.75;100.00;98878.44;5094421;28;20285;-60
2023/12/17 04:46:13;;;;;;;22.40;17.07;;;;;;;2.71;100.00;98870.72;5084306;28;20202;-59
2023/12/17 04:48:40;;;;;;;21.47;16.93;;;;;;;2.72;100.00;98888.97;5074962;28;20601;-60
2023/12/17 04:51:07;;;;;;;20.60;16.30;;;;;;;2.64;100.00;98890.91;5073470;28;20508;-60
2023/12/17 04:53:33;;;;;;;22.33;16.90;;;;;;;2.63;100.00;98889.19;5074015;28;20206;-59
2023/12/17 04:56:00;;;;;;;24.63;17.87;;;;;;;2.69;100.00;98888.19;5073819;28;20547;-61
2023/12/17 04:58:28;;;;;;;25.10;18.73;;;;;;;2.66;100.00;98893.50;5073123;28;20297;-60
2023/12/17 05:00:58;;;;;;;24.40;18.30;;;;;;;2.56;100.00;98890.25;5073014;28;20225;-59
2023/12/17 05:03:25;;;;;;;25.60;18.40;;;;;;;2.53;100.00;98887.72;5073511;28;20199;-61
2023/12/17 05:05:51;;;;;;;24.93;17.80;;;;;;;2.55;100.00;98885.91;5074081;28;20220;-60
2023/12/17 05:08:18;;;;;;;23.07;17.57;;;;;;;2.51;100.00;98879.06;5077451;28;20289;-60
2023/12/17 05:10:45;;;;;;;22.47;16.33;;;;;;;2.48;100.00;98879.13;5074748;28;20329;-60
2023/12/17 05:13:12;;;;;;;24.50;18.63;;;;;;;2.38;100.00;98877.66;5073637;28;20194;-60
2023/12/17 05:15:40;;;;;;;23.47;17.40;;;;;;;2.50;100.00;98878.22;5072461;28;20262;-59
2023/12/17 05:18:07;;;;;;;24.20;17.47;;;;;;;2.42;100.00;98884.50;5072910;28;20208;-59
2023/12/17 05:20:33;;;;;;;21.97;16.60;;;;;;;2.38;100.00;98883.72;5073231;28;20234;-60
2023/12/17 05:23:00;;;;;;;24.53;17.20;;;;;;;2.43;100.00;98876.66;5073112;28;20208;-61
2023/12/17 05:25:27;;;;;;;23.23;17.67;;;;;;;2.40;100.00;98876.75;5073064;28;20206;-59
2023/12/17 05:27:53;;;;;;;22.87;17.33;;;;;;;2.34;100.00;98882.09;5073092;28;20202;-59
2023/12/17 05:30:20;;;;;;;24.13;17.40;;;;;;;2.29;100.00;98889.19;5073348;28;20206;-60
2023/12/17 05:32:47;;;;;;;23.10;17.40;;;;;;;2.28;100.00;98886.63;5072804;28;20639;-58
2023/12/17 05:35:14;;;;;;;24.73;17.57;;;;;;;2.30;100.00;98890.06;5073145;28;20205;-58
2023/12/17 05:37:40;;;;;;;21.93;17.20;;;;;;;2.35;100.00;98886.44;5072622;28;20214;-60
2023/12/17 05:40:08;;;;;;;22.60;17.10;;;;;;;2.34;100.00;98874.25;5072757;28;20222;-59
2023/12/17 05:42:35;;;;;;;23.63;17.40;;;;;;;2.18;100.00;98880.78;5072221;28;20212;-60
2023/12/17 05:45:02;;;;;;;25.37;17.83;;;;;;;2.28;100.00;98876.16;5072833;28;20737;-58
2023/12/17 05:47:28;;;;;;;22.37;16.67;;;;;;;2.34;100.00;98874.25;5073355;28;20228;-60
2023/12/17 05:49:56;;;;;;;25.67;18.57;;;;;;;2.31;100.00;98879.56;5072079;28;20217;-58
2023/12/17 05:52:23;;;;;;;23.97;18.03;;;;;;;2.37;100.00;98881.19;5072890;28;20221;-60
2023/12/17 05:54:50;;;;;;;24.23;16.87;;;;;;;2.42;100.00;98871.47;5072415;28;20217;-59
2023/12/17 05:57:16;;;;;;;24.60;17.90;;;;;;;2.39;100.00;98868.94;5072615;28;20300;-59
2023/12/17 05:59:43;;;;;;;24.90;18.23;;;;;;;2.41;100.00;98869.72;5072161;28;20234;-58
2023/12/17 06:02:10;;;;;;;25.00;17.43;;;;;;;2.36;100.00;98875.09;5072419;28;20241;-58
2023/12/17 06:04:36;;;;;;;25.13;18.30;;;;;;;2.28;100.00;98876.16;5071312;28;20648;-59
2023/12/17 06:07:04;;;;;;;22.03;17.13;;;;;;;2.24;100.00;98871.91;5072688;28;20342;-59
2023/12/17 06:09:31;;;;;;;25.00;17.67;;;;;;;2.22;100.00;98863.28;5072839;28;20217;-60
2023/12/17 06:11:58;;;;;;;24.17;18.10;;;;;;;2.20;100.00;98875.50;5072526;28;20297;-59
2023/12/17 06:14:28;;;;;;;25.97;19.43;;;;;;;2.22;100.00;98873.72;5071462;28;20218;-60
2023/12/17 06:16:54;;;;;;;25.27;18.03;;;;;;;2.18;100.00;98870.31;5071682;28;20229;-61
2023/12/17 06:19:21;;;;;;;23.63;18.80;;;;;;;2.12;100.00;98880.06;5071628;28;20216;-60
2023/12/17 06:21:47;;;;;;;24.27;17.77;;;;;;;2.11;100.00;98878.34;5071915;28;20225;-60
2023/12/17 06:24:15;;;;;;;25.80;18.67;;;;;;;2.23;100.00;98872.84;5072409;28;20204;-60
2023/12/17 06:26:42;;;;;;;26.83;18.87;;;;;;;2.29;100.00;98872.66;5072129;28;20224;-60
2023/12/17 06:29:12;;;;;;;24.23;18.27;;;;;;;2.34;100.00;98876.00;5071087;28;20215;-59
2023/12/17 06:31:39;;;;;;;24.30;17.93;;;;;;;2.39;100.00;98868.94;5072376;28;20278;-59
2023/12/17 06:34:06;;;;;;;26.93;17.70;;;;;;;2.42;100.00;98868.84;5071735;28;20297;-60
2023/12/17 06:36:32;;;;;;;25.57;18.63;;;;;;;2.44;100.00;98870.50;5071668;28;20215;-59
2023/12/17 06:38:59;;;;;;;24.83;18.27;;;;;;;2.43;100.00;98868.81;5074660;28;20218;-60
2023/12/17 06:41:27;;;;;;;25.27;18.87;;;;;;;2.41;100.00;98873.22;5075778;28;20231;-60
2023/12/17 06:43:53;;;;;;;24.20;18.57;;;;;;;2.35;100.00;98862.06;5074298;28;20206;-60
2023/12/17 06:46:20;;;;;;;23.57;17.80;;;;;;;2.27;100.00;98864.00;5073299;28;20220;-60
2023/12/17 06:48:49;;;;;;;26.10;18.67;;;;;;;2.27;100.00;98869.22;5071287;28;20206;-60
2023/12/17 06:51:15;;;;;;;23.23;17.07;;;;;;;2.35;100.00;98875.97;5072594;28;20640;-59
2023/12/17 06:53:42;;;;;;;24.07;18.07;;;;;;;2.42;100.00;98879.28;5072004;28;20203;-59
2023/12/17 06:56:09;;;;;;;21.90;16.50;;;;;;;2.40;100.00;98879.34;5071964;28;20233;-60
2023/12/17 06:58:37;;;;;;;20.77;15.73;;;;;;;2.42;100.00;98889.75;5074631;28;20278;-59
2023/12/17 07:01:04;;;;;;;25.00;17.00;;;;;;;2.39;100.00;98887.22;5077900;28;20218;-59
2023/12/17 07:03:30;;;;;;;23.00;16.63;;;;;;;2.36;100.00;98880.31;5077009;28;20289;-59
2023/12/17 07:05:58;;;;;;;22.47;16.50;;;;;;;2.41;100.00;98885.41;5071989;28;20213;-60
2023/12/17 07:08:25;;;;;;;24.57;17.80;;;;;;;2.37;100.00;98886.41;5071879;28;20226;-60
2023/12/17 07:10:51;;;;;;;21.93;17.73;;;;;;;2.42;100.00;98885.38;5071300;28;20194;-61
2023/12/17 07:13:18;;;;;;;22.40;18.10;;;;;;;2.37;100.00;98887.22;5070988;28;20746;-60
2023/12/17 07:15:46;;;;;;;21.80;16.37;;;;;;;2.40;100.00;98883.72;5070847;28;20693;-60
2023/12/17 07:18:13;;;;;;;23.70;17.77;;;;;;;2.34;100.00;98881.22;5071378;28;20208;-60
2023/12/17 07:20:39;;;;;;;22.57;16.93;;;;;;;2.37;100.00;98875.97;5070683;28;21304;-60
2023/12/17 07:23:06;;;;;;;24.37;17.83;;;;;;;2.27;100.00;98879.66;5070506;28;20297;-60
2023/12/17 07:25:32;;;;;;;23.37;18.13;;;;;;;2.26;100.00;98870.13;5071019;28;20209;-60
2023/12/17 07:27:59;;;;;;;23.40;17.67;;;;;;;2.30;100.00;98869.16;5070593;28;20199;-61
2023/12/17 07:30:26;;;;;;;27.20;19.07;;;;;;;2.33;100.00;98874.31;5070303;28;20534;-60
2023/12/17 07:32:54;;;;;;;24.63;18.20;;;;;;;2.38;100.00;98867.22;5070859;28;20229;-59
2023/12/17 07:35:21;;;;;;;23.57;17.17;;;;;;;2.48;100.00;98858.22;5070844;28;20234;-60
2023/12/17 07:37:47;;;;;;;27.23;18.17;;;;;;;2.50;100.00;98864.28;5070401;28;20194;-58
2023/12/17 07:40:14;;;;;;;24.20;17.77;;;;;;;2.49;100.00;98866.03;5070456;28;20240;-60
2023/12/17 07:42:41;;;;;;;24.90;18.87;;;;;;;2.47;100.00;98867.00;5070236;28;20555;-60
2023/12/17 07:45:09;;;;;;;26.87;18.27;;;;;;;2.46;100.00;98865.25;5072235;28;20293;-59
2023/12/17 07:47:36;;;;;;;25.80;18.43;;;;;;;2.48;100.00;98866.94;5070923;28;20208;-60
2023/12/17 07:50:05;;;;;;;25.10;18.87;;;;;;;2.50;100.00;98867.78;5071266;28;20229;-60
2023/12/17 07:52:31;;;;;;;23.23;17.33;;;;;;;2.54;100.00;98873.78;5070477;28;20743;-59
2023/12/17 07:55:01;;;;;;;22.80;17.40;;;;;;;2.53;100.00;98877.28;5071446;28;20209;-60
2023/12/17 07:57:28;;;;;;;25.60;18.40;;;;;;;2.48;100.00;98868.69;5070392;28;20204;-60
2023/12/17 07:59:55;;;;;;;23.33;17.70;;;;;;;2.39;100.00;98864.56;5070738;28;20298;-60
2023/12/17 08:02:21;;;;;;;22.07;17.10;;;;;;;2.41;100.00;98860.16;5071495;28;20524;-60
2023/12/17 08:04:49;;;;;;;21.53;16.97;;;;;;;2.55;100.00;98867.63;5072732;28;20206;-59
2023/12/17 08:07:17;;;;;;;21.77;16.67;;;;;;;2.56;100.00;98873.72;5070922;28;20202;-59
2023/12/17 08:09:44;;;;;;;24.10;17.33;;;;;;;2.53;100.00;98876.41;5071797;28;20586;-59
2023/12/17 08:12:10;;;;;;;24.97;18.00;;;;;;;2.50;100.00;98873.00;5070633;28;20213;-59
2023/12/17 08:14:37;;;;;;;26.07;18.73;;;;;;;2.36;100.00;98879.47;5070274;28;20327;-59
2023/12/17 08:17:04;;;;;;;25.47;18.33;;;;;;;2.36;100.00;98869.00;5070874;28;20202;-59
2023/12/17 08:19:30;;;;;;;24.27;18.10;;;;;;;2.30;100.00;98866.56;5070761;28;20198;-60
2023/12/17 08:21:57;;;;;;;25.87;18.87;;;;;;;2.46;100.00;98870.50;5070953;28;20226;-60
2023/12/17 08:24:25;;;;;;;25.90;18.53;;;;;;;2.41;100.00;98867.13;5071003;28;20294;-60
2023/12/17 08:26:54;;;;;;;24.20;17.90;;;;;;;2.43;100.00;98870.56;5070031;28;20624;-60
2023/12/17 08:29:21;;;;;;;24.87;18.77;;;;;;;2.49;100.00;98875.63;5070143;28;20199;-60
2023/12/17 08:31:47;;;;;;;25.17;17.73;;;;;;;2.53;100.00;98863.34;5070525;28;20195;-59
2023/12/17 08:34:14;;;;;;;28.60;19.70;;;;;;;2.56;100.00;98864.13;5070443;28;20199;-60
2023/12/17 08:36:41;;;;;;;24.40;18.27;;;;;;;2.56;100.00;98871.97;5070344;28;20647;-61
2023/12/17 08:39:11;;;;;;;26.67;19.20;;;;;;;2.58;100.00;98880.63;5070304;28;21251;-59
2023/12/17 08:41:39;;;;;;;27.10;19.13;;;;;;;2.57;100.00;98873.69;5069931;28;20600;-59
2023/12/17 08:44:05;;;;;;;24.73;18.20;;;;;;;2.53;100.00;98884.25;5069547;28;20213;-59
2023/12/17 08:46:32;;;;;;;25.30;18.50;;;;;;;2.46;100.00;98875.72;5069895;28;20207;-58
2023/12/17 08:48:59;;;;;;;25.40;18.10;;;;;;;2.46;100.00;98880.94;5069947;28;20206;-60
2023/12/17 08:51:26;;;;;;;23.90;18.17;;;;;;;2.54;100.00;98881.59;5069844;28;20647;-59
2023/12/17 08:53:53;;;;;;;25.97;18.67;;;;;;;2.53;100.00;98887.72;5073121;28;20203;-60
2023/12/17 08:56:19;;;;;;;26.33;19.27;;;;;;;2.62;100.00;98884.03;5073750;28;20212;-60
2023/12/17 08:58:49;;;;;;;26.60;19.37;;;;;;;2.63;100.00;98889.19;5073812;28;20206;-60
2023/12/17 09:01:18;;;;;;;24.60;17.87;;;;;;;2.63;100.00;98883.97;5074049;28;20230;-60
2023/12/17 09:03:45;;;;;;;25.77;18.50;;;;;;;2.56;100.00;98887.63;5075923;28;20238;-62
2023/12/17 09:06:12;;;;;;;26.10;19.47;;;;;;;2.58;100.00;98882.38;5074424;28;20653;-59
2023/12/17 09:08:38;;;;;;;27.03;18.70;;;;;;;2.54;100.00;98884.22;5075541;28;20298;-58
2023/12/17 09:11:05;;;;;;;21.63;17.07;;;;;;;2.58;100.00;98887.59;5074438;28;20205;-60
2023/12/17 09:13:32;;;;;;;20.80;15.67;;;;;;;2.56;100.00;98884.16;5073833;28;20211;-59
2023/12/17 09:16:00;;;;;;;18.53;14.77;;;;;;;2.63;100.00;98875.28;5075549;28;20238;-60
2023/12/17 09:18:27;;;;;;;20.80;14.53;;;;;;;2.64;100.00;98879.59;5080013;28;20202;-59
2023/12/17 09:20:53;;;;;;;18.57;15.30;;;;;;;2.63;100.00;98880.50;5083273;28;20340;-59
2023/12/17 09:23:20;;;;;;;19.93;15.33;;;;;;;2.62;100.00;98884.03;5079938;28;20635;-58
2023/12/17 09:25:49;;;;;;;20.47;15.23;;;;;;;2.66;100.00;98891.72;5075722;28;20635;-59
2023/12/17 09:28:16;;;;;;;22.03;16.47;;;;;;;2.61;100.00;98891.00;5073833;28;20210;-59
2023/12/17 09:30:43;;;;;;;20.60;15.60;;;;;;;2.73;100.00;98893.28;5074849;28;20208;-59
2023/12/17 09:33:10;;;;;;;22.47;16.17;;;;;;;2.63;100.00;98881.34;5073832;28;20194;-58
2023/12/17 09:35:38;;;;;;;21.77;16.03;;;;;;;2.59;100.00;98874.50;5073538;28;20213;-57
2023/12/17 09:38:05;;;;;;;21.80;16.40;;;;;;;2.69;100.00;98876.00;5072860;28;20206;-56
2023/12/17 09:40:32;;;;;;;21.40;16.73;;;;;;;2.70;100.00;98875.06;5073549;28;20206;-58
2023/12/17 09:42:59;;;;;;;25.83;18.87;;;;;;;2.71;100.00;98871.56;5072767;28;20230;-58
2023/12/17 09:45:26;;;;;;;23.63;17.60;;;;;;;2.51;100.00;98868.63;5073128;28;20286;-59
2023/12/17 09:47:53;;;;;;;24.73;18.30;;;;;;;2.53;100.00;98877.28;5072914;28;20297;-56
2023/12/17 09:50:21;;;;;;;24.90;17.67;;;;;;;2.49;100.00;98870.41;5072999;28;20220;-58
2023/12/17 09:52:48;;;;;;;25.63;18.43;;;;;;;2.60;100.00;98872.75;5073925;28;20240;-57
2023/12/17 09:55:16;;;;;;;23.50;18.00;;;;;;;2.64;100.00;98874.38;5074322;28;20504;-56
2023/12/17 09:57:43;;;;;;;27.40;18.93;;;;;;;2.66;100.00;98868.22;5073053;28;20513;-56
2023/12/17 10:00:12;;;;;;;24.07;17.63;;;;;;;2.77;100.00;98868.78;5072909;28;20213;-57
2023/12/17 10:02:39;;;;;;;22.87;17.10;;;;;;;2.79;100.00;98867.00;5072567;28;20233;-58
2023/12/17 10:05:07;;;;;;;21.93;16.80;;;;;;;2.79;100.00;98866.16;5071466;28;20532;-58
2023/12/17 10:07:36;;;;;;;22.67;16.97;;;;;;;2.83;100.00;98860.81;5072823;28;20213;-57
2023/12/17 10:10:03;;;;;;;23.47;17.13;;;;;;;2.97;100.00;98855.19;5071979;28;20198;-57
2023/12/17 10:12:30;;;;;;;23.97;18.00;;;;;;;3.03;100.00;98859.38;5072444;28;20600;-58
2023/12/17 10:14:57;;;;;;;22.77;16.57;;;;;;;2.97;100.00;98848.22;5072018;28;20238;-58
2023/12/17 10:17:24;;;;;;;22.80;16.27;;;;;;;2.99;100.00;98853.38;5072001;28;20657;-58
2023/12/17 10:19:52;;;;;;;21.33;16.10;;;;;;;2.96;100.00;98856.94;5074060;28;20217;-58
2023/12/17 10:22:19;;;;;;;20.80;15.20;;;;;;;3.00;100.00;98855.09;5072721;28;20230;-56
2023/12/17 10:24:48;;;;;;;19.33;14.80;;;;;;;2.98;100.00;98843.81;5072502;28;20206;-58
2023/12/17 10:27:18;;;;;;;19.67;15.53;;;;;;;2.81;100.00;98846.91;5071938;28;20639;-58
2023/12/17 10:29:44;;;;;;;18.57;14.17;;;;;;;2.93;100.00;98843.09;5074525;28;20265;-58
2023/12/17 10:32:12;;;;;;;19.97;14.80;;;;;;;2.92;100.00;98842.25;5075193;28;20217;-59
2023/12/17 10:34:40;;;;;;;18.53;15.00;;;;;;;2.90;100.00;98838.84;5072091;28;20214;-58
2023/12/17 10:37:07;;;;;;;17.67;13.40;;;;;;;2.97;100.00;98832.53;5076099;28;20523;-56
2023/12/17 10:39:34;;;;;;;19.83;15.13;;;;;;;3.00;100.00;98832.44;5075214;28;20599;-59
2023/12/17 10:42:02;;;;;;;21.20;14.80;;;;;;;2.99;100.00;98829.88;5076927;28;20771;-58
2023/12/17 10:44:29;;;;;;;19.87;14.40;;;;;;;3.03;100.00;98825.41;5073250;28;20218;-58
2023/12/17 10:46:58;;;;;;;19.23;14.60;;;;;;;3.12;100.00;98819.94;5072566;28;20206;-56
2023/12/17 10:49:24;;;;;;;20.77;15.63;;;;;;;3.19;100.00;98818.84;5072675;28;20209;-58
2023/12/17 10:51:52;;;;;;;19.60;14.37;;;;;;;3.25;100.00;98808.22;5071831;28;20194;-59
2023/12/17 10:54:18;;;;;;;17.93;13.93;;;;;;;3.16;100.00;98809.31;5071737;28;20217;-58
2023/12/17 10:56:47;;;;;;;16.87;13.60;;;;;;;3.19;100.00;98796.16;5071725;28;20308;-58
2023/12/17 10:59:19;;;;;;;18.13;13.70;;;;;;;3.25;100.00;98790.75;5070981;28;20206;-59
2023/12/17 11:01:48;;;;;;;17.20;12.97;;;;;;;3.21;100.00;98796.97;5071548;28;20206;-59
2023/12/17 11:04:15;;;;;;;17.47;12.73;;;;;;;3.23;100.00;98796.91;5071221;28;20216;-57
2023/12/17 11:06:42;;;;;;;15.47;11.73;;;;;;;3.32;100.00;98804.50;5071909;28;20289;-57
2023/12/17 11:09:08;;;;;;;14.27;11.60;;;;;;;3.33;100.00;98803.63;5071172;28;20256;-57
2023/12/17 11:11:37;;;;;;;15.90;12.23;;;;;;;3.19;100.00;98800.56;5071320;28;20652;-57
2023/12/17 11:14:03;;;;;;;15.33;12.37;;;;;;;3.26;100.00;98797.69;5069830;28;20209;-58
2023/12/17 11:16:31;;;;;;;16.43;12.20;;;;;;;3.26;100.00;98792.44;5070757;28;20210;-58